Time;durP1;ratioP1;P1;durP2;ratioP2;P2;SDS_P1;SDS_P2;PMS_P1;PMS_P2;Temp;Humidity;BMP_temperature;BMP_pressure;BME280_temperature;BME280_humidity;BME280_pressure;Samples;Min_cycle;Max_cycle;Signal;HPM_P1;HPM_P2
2023/05/16 00:05:28;;;;;;;;;;;15.70;42.20;;;;;;21247851;28;20388;-56
2023/05/16 00:15:29;;;;;;;;;;;15.40;42.60;;;;;;21247220;28;19976;-57
2023/05/16 00:25:30;;;;;;;;;;;15.50;42.40;;;;;;21248161;28;19924;-57
2023/05/16 00:35:30;;;;;;;;;;;15.20;42.90;;;;;;21246667;28;19924;-57
2023/05/16 00:45:31;;;;;;;;;;;15.20;43.70;;;;;;21246328;28;19973;-56
2023/05/16 00:55:31;;;;;;;;;;;15.20;44.10;;;;;;21254191;27;19923;-58
2023/05/16 01:05:32;;;;;;;;;;;15.00;44.40;;;;;;21259066;27;20135;-59
2023/05/16 01:15:56;;;;;;;;;;;14.90;44.50;;;;;;21259651;27;20250;-57
2023/05/16 01:26:05;;;;;;;;;;;15.00;43.80;;;;;;21258693;27;19923;-56
2023/05/16 01:36:09;;;;;;;;;;;14.70;44.10;;;;;;21256494;27;19959;-56
2023/05/16 01:46:11;;;;;;;;;;;14.70;44.00;;;;;;21256869;27;19923;-56
2023/05/16 01:56:14;;;;;;;;;;;14.50;44.20;;;;;;21255805;27;19968;-57
2023/05/16 02:06:14;;;;;;;;;;;14.40;44.80;;;;;;21252975;27;19923;-58
2023/05/16 02:16:15;;;;;;;;;;;14.30;45.20;;;;;;21252545;27;19931;-57
2023/05/16 02:26:16;;;;;;;;;;;14.00;45.80;;;;;;21253756;27;20431;-57
2023/05/16 02:36:16;;;;;;;;;;;14.10;45.40;;;;;;21252533;27;19923;-57
2023/05/16 02:46:27;;;;;;;;;;;13.90;45.60;;;;;;21251668;27;19930;-56
2023/05/16 02:56:28;;;;;;;;;;;13.80;45.90;;;;;;21249848;27;19931;-56
2023/05/16 03:06:29;;;;;;;;;;;13.90;45.60;;;;;;21250276;27;20353;-56
2023/05/16 03:16:29;;;;;;;;;;;13.90;45.80;;;;;;21248689;27;19930;-57
2023/05/16 03:26:30;;;;;;;;;;;13.80;46.20;;;;;;21249543;27;19924;-57
2023/05/16 03:36:31;;;;;;;;;;;13.90;46.30;;;;;;21249045;27;19930;-56
2023/05/16 03:46:31;;;;;;;;;;;13.70;46.50;;;;;;21247275;27;19924;-56
2023/05/16 03:56:32;;;;;;;;;;;13.70;46.00;;;;;;21248028;28;19971;-57
2023/05/16 04:06:33;;;;;;;;;;;13.50;45.80;;;;;;21247345;28;19946;-58
2023/05/16 04:16:33;;;;;;;;;;;13.50;46.30;;;;;;21247479;28;19928;-56
2023/05/16 04:26:35;;;;;;;;;;;13.50;46.30;;;;;;21247597;27;20022;-57
2023/05/16 04:36:36;;;;;;;;;;;13.40;47.10;;;;;;21262906;27;19927;-57
2023/05/16 04:46:36;;;;;;;;;;;13.50;47.10;;;;;;21260691;27;20026;-55
2023/05/16 04:56:37;;;;;;;;;;;13.50;46.30;;;;;;21260626;27;19923;-57
2023/05/16 05:07:08;;;;;;;;;;;13.40;45.90;;;;;;21260279;27;19937;-56
2023/05/16 05:17:09;;;;;;;;;;;13.30;45.30;;;;;;21250385;27;19927;-56
2023/05/16 05:27:10;;;;;;;;;;;13.20;44.70;;;;;;21258809;27;19924;-56
2023/05/16 05:37:10;;;;;;;;;;;13.20;44.20;;;;;;21257108;27;19988;-57
2023/05/16 05:47:11;;;;;;;;;;;13.20;44.30;;;;;;21257323;27;19966;-56
2023/05/16 05:57:12;;;;;;;;;;;13.40;43.20;;;;;;21257091;27;19931;-56
2023/05/16 06:07:14;;;;;;;;;;;13.50;42.60;;;;;;21257071;27;19924;-56
2023/05/16 06:17:15;;;;;;;;;;;13.40;43.60;;;;;;21255972;27;19973;-58
2023/05/16 06:27:16;;;;;;;;;;;13.60;42.70;;;;;;21255007;27;19924;-59
2023/05/16 06:37:16;;;;;;;;;;;13.70;41.30;;;;;;21254188;27;20011;-58
2023/05/16 06:47:17;;;;;;;;;;;13.90;40.20;;;;;;21253065;27;20006;-57
2023/05/16 06:57:18;;;;;;;;;;;14.60;40.00;;;;;;21252228;27;19931;-58
2023/05/16 07:07:18;;;;;;;;;;;15.20;39.90;;;;;;21251820;27;20281;-57
2023/05/16 07:17:19;;;;;;;;;;;15.90;37.30;;;;;;21250782;27;20010;-56
2023/05/16 07:27:20;;;;;;;;;;;16.20;36.40;;;;;;21250587;27;19923;-57
2023/05/16 07:37:20;;;;;;;;;;;16.50;36.30;;;;;;21248174;27;19924;-57
2023/05/16 07:47:21;;;;;;;;;;;16.80;35.50;;;;;;21247881;27;19989;-56
2023/05/16 07:57:21;;;;;;;;;;;17.20;34.90;;;;;;21247822;28;20362;-56
2023/05/16 08:07:23;;;;;;;;;;;17.40;34.90;;;;;;21261552;27;20011;-57
2023/05/16 08:17:23;;;;;;;;;;;17.40;34.30;;;;;;21264889;27;19923;-56
2023/05/16 08:27:24;;;;;;;;;;;17.50;34.20;;;;;;21264569;27;20030;-56
2023/05/16 08:37:25;;;;;;;;;;;17.60;33.80;;;;;;21264088;27;19934;-57
2023/05/16 08:47:26;;;;;;;;;;;17.70;34.50;;;;;;21261991;27;19923;-56
2023/05/16 08:57:27;;;;;;;;;;;17.90;33.50;;;;;;21262398;27;19923;-57
2023/05/16 09:07:28;;;;;;;;;;;17.90;33.20;;;;;;21261557;27;19923;-57
2023/05/16 09:17:37;;;;;;;;;;;18.20;32.00;;;;;;21260995;27;19924;-56
2023/05/16 09:27:37;;;;;;;;;;;18.00;31.10;;;;;;21260485;27;20379;-58
2023/05/16 09:37:44;;;;;;;;;;;18.90;34.00;;;;;;21259202;27;20322;-58
2023/05/16 09:47:45;;;;;;;;;;;19.00;31.00;;;;;;21258692;27;19927;-59
2023/05/16 09:57:46;;;;;;;;;;;19.00;28.00;;;;;;21256774;27;19923;-58
2023/05/16 10:07:47;;;;;;;;;;;18.80;28.20;;;;;;21257057;27;20409;-58
2023/05/16 10:17:51;;;;;;;;;;;18.80;28.10;;;;;;21255936;27;20299;-57
2023/05/16 10:27:51;;;;;;;;;;;19.30;31.40;;;;;;21253396;27;19923;-59
2023/05/16 10:37:53;;;;;;;;;;;19.60;29.30;;;;;;21254442;27;19981;-60
2023/05/16 10:48:02;;;;;;;;;;;19.40;27.40;;;;;;21253270;27;19923;-59
2023/05/16 10:58:03;;;;;;;;;;;19.50;26.70;;;;;;21251942;27;19974;-61
2023/05/16 11:08:04;;;;;;;;;;;19.50;28.40;;;;;;21250326;27;19993;-57
2023/05/16 11:18:09;;;;;;;;;;;19.70;26.00;;;;;;21249771;27;19923;-60
2023/05/16 11:28:11;;;;;;;;;;;19.70;27.00;;;;;;21248480;27;19967;-60
2023/05/16 11:38:17;;;;;;;;;;;19.90;26.20;;;;;;21248840;27;19975;-58
2023/05/16 11:48:18;;;;;;;;;;;20.10;25.70;;;;;;21248506;27;19990;-59
2023/05/16 11:58:19;;;;;;;;;;;20.30;25.40;;;;;;21248743;28;19971;-60
2023/05/16 12:08:26;;;;;;;;;;;20.40;24.70;;;;;;21247638;28;19973;-61
2023/05/16 12:18:27;;;;;;;;;;;20.40;24.60;;;;;;21247362;28;19931;-61
2023/05/16 12:28:36;;;;;;;;;;;20.40;24.00;;;;;;21247128;28;19923;-62
2023/05/16 12:38:37;;;;;;;;;;;20.70;24.40;;;;;;21246803;28;19931;-61
2023/05/16 12:48:46;;;;;;;;;;;20.70;24.20;;;;;;21251807;27;19923;-62
2023/05/16 12:58:50;;;;;;;;;;;21.10;24.20;;;;;;21262829;27;19946;-62
2023/05/16 13:08:50;;;;;;;;;;;21.20;23.60;;;;;;21261067;27;19924;-61
2023/05/16 13:18:52;;;;;;;;;;;21.10;23.30;;;;;;21260226;27;20444;-61
2023/05/16 13:28:53;;;;;;;;;;;21.40;22.80;;;;;;21260251;27;20318;-62
2023/05/16 13:38:54;;;;;;;;;;;21.40;22.00;;;;;;21259656;27;19928;-63
2023/05/16 13:48:55;;;;;;;;;;;21.50;22.20;;;;;;21259041;27;19927;-63
2023/05/16 13:58:55;;;;;;;;;;;21.40;21.80;;;;;;21257516;27;19927;-62
2023/05/16 14:08:56;;;;;;;;;;;21.70;22.00;;;;;;21257122;27;19931;-62
2023/05/16 14:18:57;;;;;;;;;;;22.00;21.40;;;;;;21255403;27;20055;-62
2023/05/16 14:28:57;;;;;;;;;;;22.20;21.50;;;;;;21256263;27;20027;-62
2023/05/16 14:38:58;;;;;;;;;;;22.20;21.50;;;;;;21254994;27;19923;-62
2023/05/16 14:48:58;;;;;;;;;;;22.20;21.70;;;;;;21254102;27;19973;-62
2023/05/16 14:59:00;;;;;;;;;;;22.50;22.50;;;;;;21253115;27;19924;-62
2023/05/16 15:09:00;;;;;;;;;;;22.70;21.80;;;;;;21253176;27;20364;-62
2023/05/16 15:19:02;;;;;;;;;;;22.80;21.70;;;;;;21251907;27;19945;-62
2023/05/16 15:29:02;;;;;;;;;;;22.70;21.90;;;;;;21251002;27;19923;-63
2023/05/16 15:39:03;;;;;;;;;;;22.90;22.50;;;;;;21250009;27;19962;-66
2023/05/16 15:49:03;;;;;;;;;;;23.00;22.30;;;;;;21247630;27;19991;-61
2023/05/16 15:59:04;;;;;;;;;;;22.90;21.40;;;;;;21248132;27;19935;-62
2023/05/16 16:09:05;;;;;;;;;;;23.00;22.30;;;;;;21248389;28;20014;-61
2023/05/16 16:19:06;;;;;;;;;;;23.10;22.00;;;;;;21247139;28;19967;-61
2023/05/16 16:29:06;;;;;;;;;;;23.20;21.80;;;;;;21260609;27;19923;-63
2023/05/16 16:39:09;;;;;;;;;;;23.20;22.50;;;;;;21262309;27;19923;-57
2023/05/16 16:49:09;;;;;;;;;;;23.20;22.40;;;;;;21260570;27;19931;-62
2023/05/16 16:59:10;;;;;;;;;;;23.10;23.70;;;;;;21260842;27;19924;-64
2023/05/16 17:09:15;;;;;;;;;;;23.10;27.20;;;;;;21260704;27;19923;-60
2023/05/16 17:19:16;;;;;;;;;;;23.10;30.10;;;;;;21260668;27;19931;-62
2023/05/16 17:29:16;;;;;;;;;;;23.10;24.30;;;;;;21259267;27;19923;-61
2023/05/16 17:39:17;;;;;;;;;;;23.10;23.60;;;;;;21258688;27;20376;-59
2023/05/16 17:49:18;;;;;;;;;;;22.90;24.60;;;;;;21257996;27;19974;-59
2023/05/16 17:59:18;;;;;;;;;;;22.70;23.90;;;;;;21257791;27;19924;-60
2023/05/16 18:09:19;;;;;;;;;;;22.60;24.20;;;;;;21257438;27;19977;-59
2023/05/16 18:19:20;;;;;;;;;;;22.50;24.30;;;;;;21256273;27;19970;-60
2023/05/16 18:29:22;;;;;;;;;;;22.40;24.00;;;;;;21255975;27;19924;-59
2023/05/16 18:39:22;;;;;;;;;;;22.40;23.80;;;;;;21253715;27;19924;-58
2023/05/16 18:49:23;;;;;;;;;;;22.20;24.30;;;;;;21253217;27;19955;-58
2023/05/16 18:59:23;;;;;;;;;;;22.10;25.10;;;;;;21252933;27;19923;-59
2023/05/16 19:09:24;;;;;;;;;;;22.00;24.00;;;;;;21252305;27;19980;-60
2023/05/16 19:19:25;;;;;;;;;;;21.70;24.80;;;;;;21250402;27;19927;-59
2023/05/16 19:29:25;;;;;;;;;;;21.70;24.40;;;;;;21250236;27;19931;-59
2023/05/16 19:39:26;;;;;;;;;;;21.20;25.00;;;;;;21249792;27;20388;-60
2023/05/16 19:49:27;;;;;;;;;;;21.10;26.30;;;;;;21249582;27;19924;-62
2023/05/16 19:59:28;;;;;;;;;;;20.80;26.90;;;;;;21247166;27;19937;-61
2023/05/16 20:09:28;;;;;;;;;;;20.40;27.30;;;;;;21249155;28;19968;-62
2023/05/16 20:19:29;;;;;;;;;;;20.20;27.80;;;;;;21247473;28;19927;-63
2023/05/16 20:29:32;;;;;;;;;;;20.00;28.50;;;;;;21247278;28;20036;-63
2023/05/16 20:39:33;;;;;;;;;;;19.70;29.00;;;;;;21245310;28;19923;-61
2023/05/16 20:49:38;;;;;;;;;;;19.50;29.20;;;;;;21246240;28;19930;-61
2023/05/16 20:59:39;;;;;;;;;;;19.30;29.10;;;;;;21246945;28;20014;-61
2023/05/16 21:09:40;;;;;;;;;;;18.90;30.00;;;;;;21249182;27;19966;-62
2023/05/16 21:19:41;;;;;;;;;;;18.70;30.90;;;;;;21259747;27;19930;-62
2023/05/16 21:29:41;;;;;;;;;;;18.50;31.20;;;;;;21258202;27;19981;-65
2023/05/16 21:39:42;;;;;;;;;;;18.20;31.70;;;;;;21258506;27;20405;-61
2023/05/16 21:49:42;;;;;;;;;;;18.00;31.70;;;;;;21258101;27;19923;-61
2023/05/16 21:59:43;;;;;;;;;;;17.70;32.00;;;;;;21256152;27;19968;-61
2023/05/16 22:09:44;;;;;;;;;;;17.40;32.30;;;;;;21256698;27;20372;-62
2023/05/16 22:19:45;;;;;;;;;;;17.20;32.80;;;;;;21253793;27;19927;-61
2023/05/16 22:29:46;;;;;;;;;;;16.90;32.60;;;;;;21254568;27;20295;-61
2023/05/16 22:39:46;;;;;;;;;;;16.60;32.10;;;;;;21252816;27;19974;-61
2023/05/16 22:49:47;;;;;;;;;;;16.50;32.30;;;;;;21252187;27;19923;-61
2023/05/16 22:59:47;;;;;;;;;;;16.30;32.40;;;;;;21252111;27;19959;-61
2023/05/16 23:09:48;;;;;;;;;;;16.10;32.70;;;;;;21250803;27;19931;-60
2023/05/16 23:19:49;;;;;;;;;;;15.70;33.30;;;;;;21249694;27;20031;-61
2023/05/16 23:29:50;;;;;;;;;;;15.60;33.50;;;;;;21248552;27;20036;-62
2023/05/16 23:39:50;;;;;;;;;;;15.60;33.50;;;;;;21249099;27;20394;-62
2023/05/16 23:49:51;;;;;;;;;;;15.60;33.50;;;;;;21248723;27;19975;-61
2023/05/16 23:59:52;;;;;;;;;;;15.30;34.40;;;;;;21248360;27;19959;-62
